Time;durP1;ratioP1;P1;durP2;ratioP2;P2;SDS_P1;SDS_P2;PMS_P1;PMS_P2;Temp;Humidity;BMP_temperature;BMP_pressure;BME280_temperature;BME280_humidity;BME280_pressure;Samples;Min_cycle;Max_cycle;Signal;HPM_P1;HPM_P2
2023/06/12 03:55:28;;;;;;;3.78;2.90;;;;;;;14.72;92.37;100267.13;5232092;31;20152;-84
2023/06/12 03:58:31;;;;;;;3.17;2.87;;;;;;;14.80;93.39;100279.62;5254149;33;34122;-84
2023/06/12 04:01:34;;;;;;;5.10;3.17;;;;;;;14.89;92.49;100273.81;5241578;33;32921;-84
2023/06/12 04:04:37;;;;;;;8.82;3.37;;;;;;;15.03;91.63;100273.78;5259779;33;33052;-84
2023/06/12 04:07:40;;;;;;;5.10;3.33;;;;;;;15.06;91.33;100265.22;5256508;33;34306;-84
2023/06/12 04:10:44;;;;;;;3.60;3.12;;;;;;;15.16;90.77;100271.06;5257364;33;34279;-84
2023/06/12 04:13:46;;;;;;;4.05;3.00;;;;;;;15.30;90.91;100271.91;5258936;33;33507;-84
2023/06/12 04:16:49;;;;;;;5.18;3.00;;;;;;;15.33;89.92;100268.75;5242188;33;33880;-84
2023/06/12 04:19:52;;;;;;;3.22;2.92;;;;;;;15.35;87.94;100270.19;5230167;33;33002;-84
2023/06/12 04:22:58;;;;;;;3.65;2.78;;;;;;;15.44;88.21;100270.81;5218839;33;33053;-84
2023/06/12 04:26:04;;;;;;;3.67;2.83;;;;;;;15.56;87.27;100268.25;5241475;33;33570;-84
2023/06/12 04:29:08;;;;;;;7.87;3.20;;;;;;;15.62;85.60;100267.44;5230694;33;32966;-84
2023/06/12 04:32:14;;;;;;;3.75;2.90;;;;;;;15.73;85.31;100266.78;5229558;33;33301;-84
2023/06/12 04:35:22;;;;;;;2.95;2.65;;;;;;;15.80;84.04;100262.19;5253921;33;33189;-84
2023/06/12 04:38:25;;;;;;;3.45;2.78;;;;;;;15.83;82.77;100269.06;5245442;33;33311;-84
2023/06/12 04:41:32;;;;;;;3.20;2.90;;;;;;;15.87;81.24;100264.84;5258548;33;34196;-84
2023/06/12 04:44:35;;;;;;;4.18;2.83;;;;;;;15.98;82.05;100272.34;5256823;33;34347;-84
2023/06/12 04:47:40;;;;;;;3.50;2.67;;;;;;;16.12;81.24;100267.69;5230845;33;33835;-83
2023/06/12 04:50:44;;;;;;;3.17;2.50;;;;;;;16.18;79.58;100271.41;5243756;33;34212;-84
2023/06/12 04:53:47;;;;;;;3.85;2.85;;;;;;;16.26;78.58;100279.28;5246157;33;33272;-84
2023/06/12 04:56:52;;;;;;;4.12;2.75;;;;;;;16.33;77.84;100283.63;5249292;33;33589;-84
2023/06/12 04:59:55;;;;;;;2.90;2.60;;;;;;;16.37;78.44;100280.47;5249616;33;33103;-84
2023/06/12 05:02:59;;;;;;;2.97;2.75;;;;;;;16.47;75.91;100269.97;5237239;33;34145;-84
2023/06/12 05:06:02;;;;;;;2.90;2.50;;;;;;;16.54;76.36;100270.75;5249296;33;32899;-84
2023/06/12 05:09:08;;;;;;;9.90;2.90;;;;;;;16.62;74.02;100277.81;5260425;33;33407;-84
2023/06/12 05:12:12;;;;;;;5.65;2.87;;;;;;;16.68;74.68;100283.22;5261324;33;33383;-84
2023/06/12 05:15:15;;;;;;;5.45;2.97;;;;;;;16.78;74.30;100280.84;5249962;33;34087;-84
2023/06/12 05:18:18;;;;;;;3.08;2.50;;;;;;;16.70;73.73;100281.09;5273237;33;33286;-84
2023/06/12 05:21:21;;;;;;;2.80;2.50;;;;;;;16.81;72.61;100278.75;5273289;33;33319;-84
2023/06/12 05:24:24;;;;;;;5.65;2.80;;;;;;;16.78;72.18;100280.84;5260189;33;33381;-83
2023/06/12 05:27:28;;;;;;;2.42;2.22;;;;;;;16.93;71.96;100276.97;5259824;33;34257;-84
2023/06/12 05:30:31;;;;;;;4.28;2.85;;;;;;;17.04;71.21;100275.41;5273168;33;33337;-87
2023/06/12 05:33:35;;;;;;;3.78;2.50;;;;;;;17.14;70.67;100278.44;5259664;33;33198;-88
2023/06/12 05:36:38;;;;;;;3.60;2.85;;;;;;;17.13;70.74;100276.81;5247954;33;34140;-88
2023/06/12 05:39:41;;;;;;;3.58;2.67;;;;;;;17.21;70.92;100282.78;5247681;33;34089;-86
2023/06/12 05:42:44;;;;;;;4.37;2.80;;;;;;;17.38;70.97;100276.78;5261230;33;33434;-85
2023/06/12 05:45:47;;;;;;;4.20;2.67;;;;;;;17.25;68.93;100287.78;5247552;33;33796;-85
2023/06/12 05:48:50;;;;;;;5.15;2.60;;;;;;;17.50;68.67;100277.69;5262419;33;34623;-85
2023/06/12 05:51:53;;;;;;;4.12;2.70;;;;;;;17.58;65.82;100287.44;5277167;33;33715;-85
2023/06/12 05:54:56;;;;;;;6.28;2.50;;;;;;;17.50;66.61;100285.84;5265648;33;33683;-85
2023/06/12 05:57:59;;;;;;;3.50;2.78;;;;;;;17.59;66.35;100286.41;5278319;33;33629;-85
2023/06/12 06:01:05;;;;;;;3.28;2.35;;;;;;;17.56;64.52;100295.84;5293625;33;34353;-85
2023/06/12 06:04:12;;;;;;;4.05;2.40;;;;;;;17.88;65.00;100291.09;5282308;33;34243;-85
2023/06/12 06:07:15;;;;;;;4.55;2.17;;;;;;;17.76;62.91;100292.91;5279827;33;33595;-85
2023/06/12 06:10:22;;;;;;;3.72;2.33;;;;;;;17.92;62.55;100296.09;5281754;33;33667;-84
2023/06/12 06:13:25;;;;;;;5.20;2.33;;;;;;;18.16;62.90;100306.06;5264360;33;33617;-84
2023/06/12 06:16:28;;;;;;;2.35;1.98;;;;;;;18.10;59.44;100299.62;5268669;33;33312;-85
2023/06/12 06:19:51;;;;;;;4.75;2.20;;;;;;;18.29;61.17;100300.44;5283958;33;34598;-85
2023/06/12 06:22:54;;;;;;;2.60;2.30;;;;;;;18.34;58.71;100299.75;5283822;33;34907;-85
2023/06/12 06:25:57;;;;;;;4.70;2.28;;;;;;;18.69;60.00;100299.88;5265338;33;33621;-84
2023/06/12 06:29:01;;;;;;;2.45;2.20;;;;;;;18.83;57.84;100281.41;5263958;33;33117;-85
2023/06/12 06:32:16;;;;;;;2.62;2.42;;;;;;;18.81;55.72;100291.75;5264539;33;33806;-85
2023/06/12 06:35:19;;;;;;;4.55;2.28;;;;;;;18.88;55.93;100291.63;5259954;33;33236;-85
2023/06/12 06:38:24;;;;;;;3.70;2.22;;;;;;;18.90;55.54;100292.25;5252180;33;33362;-85
2023/06/12 06:41:28;;;;;;;3.58;2.50;;;;;;;18.98;55.76;100300.91;5261142;33;33432;-85
2023/06/12 06:44:34;;;;;;;3.60;2.22;;;;;;;18.88;53.92;100292.47;5262136;33;33361;-85
2023/06/12 06:47:37;;;;;;;2.30;2.10;;;;;;;18.99;53.67;100294.37;5276405;33;33890;-85
2023/06/12 06:50:41;;;;;;;3.12;2.83;;;;;;;18.95;52.13;100295.06;5264507;33;34078;-85
2023/06/12 06:53:44;;;;;;;7.20;1.98;;;;;;;18.93;51.67;100300.78;5288932;33;33833;-85
2023/06/12 06:56:48;;;;;;;2.58;2.00;;;;;;;19.26;51.01;100294.75;5276204;33;33325;-85
2023/06/12 06:59:54;;;;;;;2.80;1.83;;;;;;;19.39;50.94;100304.63;5276564;33;33865;-85
2023/06/12 07:02:58;;;;;;;3.08;2.15;;;;;;;19.41;49.63;100294.25;5283897;33;33075;-84
2023/06/12 07:06:02;;;;;;;2.20;1.80;;;;;;;19.75;49.61;100297.25;5268208;33;36387;-84
2023/06/12 07:09:05;;;;;;;2.35;2.15;;;;;;;19.66;47.51;100294.06;5258971;33;34631;-84
2023/06/12 07:12:11;;;;;;;4.15;1.75;;;;;;;19.64;46.78;100304.34;5247618;33;34140;-88
2023/06/12 07:15:14;;;;;;;2.85;1.98;;;;;;;19.68;48.85;100299.25;5246167;33;32958;-88
2023/06/12 07:18:19;;;;;;;3.37;1.83;;;;;;;19.78;46.95;100307.69;5247904;33;33136;-88
2023/06/12 07:21:22;;;;;;;3.12;1.70;;;;;;;19.77;47.25;100300.53;5270942;33;33263;-84
2023/06/12 07:24:25;;;;;;;6.43;1.87;;;;;;;19.84;46.63;100300.44;5246776;33;34119;-84
2023/06/12 07:27:28;;;;;;;3.78;2.20;;;;;;;19.77;47.42;100295.09;5246570;33;34207;-84
2023/06/12 07:30:33;;;;;;;4.97;2.08;;;;;;;19.86;47.66;100296.41;5253382;33;33581;-84
2023/06/12 07:33:36;;;;;;;3.28;1.80;;;;;;;19.94;47.34;100287.78;5264491;33;33718;-84
2023/06/12 07:36:40;;;;;;;6.40;2.10;;;;;;;19.96;45.31;100298.50;5264422;33;33933;-84
2023/06/12 07:39:42;;;;;;;3.22;2.10;;;;;;;19.98;45.09;100285.44;5240069;33;33625;-82
2023/06/12 07:42:47;;;;;;;2.08;1.87;;;;;;;20.21;44.42;100291.87;5253510;33;33153;-83
2023/06/12 07:45:50;;;;;;;2.12;1.90;;;;;;;20.59;45.29;100289.38;5240872;33;33973;-84
2023/06/12 07:48:53;;;;;;;4.90;1.75;;;;;;;20.43;43.52;100279.19;5240936;33;33975;-83
2023/06/12 07:51:56;;;;;;;2.70;1.80;;;;;;;20.17;43.14;100295.09;5252727;33;33053;-84
2023/06/12 07:54:59;;;;;;;2.12;1.70;;;;;;;20.37;44.36;100299.31;5240819;33;33123;-83
2023/06/12 07:58:02;;;;;;;4.93;2.00;;;;;;;20.52;43.48;100294.16;5253384;33;33039;-85
2023/06/12 08:01:06;;;;;;;5.07;2.12;;;;;;;20.30;42.35;100291.25;5253530;33;33242;-84
2023/06/12 08:04:11;;;;;;;3.78;1.95;;;;;;;20.61;42.11;100292.66;5242899;33;32930;-85
2023/06/12 08:07:15;;;;;;;5.18;2.03;;;;;;;20.44;41.88;100288.22;5246911;33;34370;-84
2023/06/12 08:10:19;;;;;;;7.75;2.40;;;;;;;20.51;41.50;100292.47;5259621;33;33463;-84
2023/06/12 08:13:22;;;;;;;4.72;1.80;;;;;;;20.26;42.93;100295.53;5263649;33;33673;-83
2023/06/12 08:16:26;;;;;;;5.37;2.25;;;;;;;20.40;42.32;100293.34;5253383;33;33259;-83
2023/06/12 08:19:32;;;;;;;65.82;7.12;;;;;;;20.58;42.32;100287.69;5260419;33;34535;-83
2023/06/12 08:22:36;;;;;;;3.65;1.65;;;;;;;20.51;41.87;100289.72;5258682;33;34235;-83
2023/06/12 08:25:40;;;;;;;3.87;1.90;;;;;;;20.67;41.91;100281.81;5247704;33;34488;-84
2023/06/12 08:28:48;;;;;;;1.60;1.50;;;;;;;20.52;41.96;100283.22;5258970;33;33904;-84
2023/06/12 08:31:53;;;;;;;3.78;2.10;;;;;;;20.74;42.32;100286.06;5258574;33;34234;-83
2023/06/12 08:34:57;;;;;;;6.85;1.95;;;;;;;20.81;41.68;100286.72;5271954;33;33269;-83
2023/06/12 08:38:01;;;;;;;4.22;1.83;;;;;;;21.13;43.64;100280.69;5257768;33;33780;-84
2023/06/12 08:41:05;;;;;;;4.05;1.70;;;;;;;21.41;42.76;100289.88;5258982;33;34129;-84
2023/06/12 08:44:09;;;;;;;3.45;1.70;;;;;;;21.48;41.70;100274.94;5257820;33;33738;-83
2023/06/12 08:47:14;;;;;;;4.00;1.73;;;;;;;21.83;42.22;100284.72;5270976;33;34175;-83
2023/06/12 08:50:18;;;;;;;4.40;1.77;;;;;;;22.09;41.22;100280.38;5257115;33;33358;-83
2023/06/12 08:53:22;;;;;;;6.60;2.25;;;;;;;21.98;39.85;100275.03;5271057;33;33388;-83
2023/06/12 08:56:26;;;;;;;4.05;2.10;;;;;;;21.65;40.87;100277.63;5281461;33;33695;-84
2023/06/12 08:59:29;;;;;;;1.30;1.20;;;;;;;21.75;40.07;100282.41;5278072;33;33405;-83
2023/06/12 09:02:32;;;;;;;2.45;1.85;;;;;;;21.63;40.98;100295.41;5257293;33;33477;-83
2023/06/12 09:05:38;;;;;;;2.67;1.77;;;;;;;21.82;40.69;100291.28;5246406;33;33017;-84
2023/06/12 09:08:41;;;;;;;4.80;1.70;;;;;;;21.86;39.53;100289.69;5270706;33;32910;-83
2023/06/12 09:11:46;;;;;;;4.05;1.83;;;;;;;21.64;40.14;100278.69;5272010;33;31920;-85
2023/06/12 09:14:50;;;;;;;5.82;1.95;;;;;;;21.93;40.64;100286.75;5255606;33;33531;-89
2023/06/12 09:17:55;;;;;;;2.22;1.80;;;;;;;22.12;39.60;100282.59;5246943;33;33006;-88
2023/06/12 09:21:05;;;;;;;1.95;1.80;;;;;;;22.37;40.27;100281.25;5270556;33;33009;-84
2023/06/12 09:24:09;;;;;;;6.03;1.95;;;;;;;22.56;40.65;100287.22;5266812;33;33429;-84
2023/06/12 09:27:12;;;;;;;3.58;1.37;;;;;;;22.57;39.67;100286.12;5270830;33;33482;-84
2023/06/12 09:30:15;;;;;;;4.45;1.62;;;;;;;22.38;38.18;100275.50;5258130;33;34235;-84
2023/06/12 09:33:26;;;;;;;3.50;1.80;;;;;;;22.13;39.89;100277.94;5270777;33;33157;-84
2023/06/12 09:36:31;;;;;;;2.47;1.50;;;;;;;22.14;40.01;100277.69;5246338;33;33450;-83
2023/06/12 09:39:44;;;;;;;4.78;1.95;;;;;;;21.91;40.38;100284.28;5274295;33;34162;-84
2023/06/12 09:42:49;;;;;;;5.50;1.98;;;;;;;22.44;41.88;100283.81;5268622;33;34802;-83
2023/06/12 09:45:52;;;;;;;3.12;1.75;;;;;;;22.81;41.10;100267.37;5272055;33;33422;-84
2023/06/12 09:48:57;;;;;;;3.72;1.92;;;;;;;23.06;39.60;100270.38;5248333;33;33303;-84
2023/06/12 09:52:05;;;;;;;2.42;1.70;;;;;;;22.94;40.60;100274.37;5259782;33;33065;-83
2023/06/12 09:55:13;;;;;;;3.90;1.75;;;;;;;23.23;39.77;100274.91;5271710;33;34117;-83
2023/06/12 09:58:18;;;;;;;2.08;1.85;;;;;;;23.24;38.07;100265.56;5271343;33;34381;-83
2023/06/12 10:01:26;;;;;;;2.95;1.52;;;;;;;23.37;40.53;100269.75;5268861;33;34117;-83
2023/06/12 10:04:59;;;;;;;1.55;1.45;;;;;;;23.08;38.67;100270.94;5258339;33;33773;-82
2023/06/12 10:08:05;;;;;;;3.67;1.90;;;;;;;23.26;39.47;100277.94;5270100;33;33116;-82
2023/06/12 10:11:10;;;;;;;2.05;1.60;;;;;;;23.69;39.27;100270.50;5273185;33;33414;-83
2023/06/12 10:14:17;;;;;;;2.83;1.42;;;;;;;23.97;39.05;100273.94;5274223;33;34120;-83
2023/06/12 10:17:22;;;;;;;4.50;1.83;;;;;;;23.76;36.02;100262.84;5270750;33;33073;-83
2023/06/12 10:20:26;;;;;;;3.90;1.80;;;;;;;23.90;37.89;100273.38;5271883;33;33023;-83
2023/06/12 10:23:30;;;;;;;6.65;1.67;;;;;;;24.48;37.40;100270.53;5259211;33;33326;-83
2023/06/12 10:26:36;;;;;;;2.20;1.45;;;;;;;24.40;37.27;100269.12;5259011;33;32867;-83
2023/06/12 10:29:39;;;;;;;4.22;1.60;;;;;;;24.89;39.23;100260.34;5262068;33;33357;-83
2023/06/12 10:32:45;;;;;;;3.53;1.58;;;;;;;24.61;36.54;100262.56;5271316;33;33295;-84
2023/06/12 10:35:48;;;;;;;3.35;1.65;;;;;;;25.21;36.15;100262.03;5271861;33;34251;-83
2023/06/12 10:39:02;;;;;;;3.72;2.08;;;;;;;25.31;33.56;100253.75;5266218;33;33420;-83
2023/06/12 10:42:07;;;;;;;3.35;1.42;;;;;;;25.18;34.60;100257.06;5270901;33;33392;-83
2023/06/12 10:45:33;;;;;;;2.45;1.50;;;;;;;25.40;34.07;100252.06;5258957;33;34117;-83
2023/06/12 10:48:46;;;;;;;3.40;1.67;;;;;;;25.44;34.28;100244.06;5258315;33;33021;-83
2023/06/12 10:51:50;;;;;;;2.65;1.55;;;;;;;25.54;33.83;100249.56;5256269;33;33398;-83
2023/06/12 10:55:12;;;;;;;4.55;2.00;;;;;;;26.22;31.91;100249.00;5264065;33;34531;-83
2023/06/12 10:58:25;;;;;;;2.67;1.50;;;;;;;26.53;32.53;100237.75;5266725;33;34261;-83
2023/06/12 11:01:38;;;;;;;3.42;1.67;;;;;;;26.61;31.44;100237.16;5258543;33;33602;-82
2023/06/12 11:04:41;;;;;;;2.55;1.70;;;;;;;26.46;32.58;100227.03;5267937;33;34182;-82
2023/06/12 11:07:47;;;;;;;4.72;1.67;;;;;;;26.45;32.81;100225.38;5246848;33;33611;-81
2023/06/12 11:10:54;;;;;;;3.05;1.52;;;;;;;27.11;30.38;100232.28;5271735;33;33314;-81
2023/06/12 11:14:01;;;;;;;2.53;1.62;;;;;;;27.63;29.14;100219.59;5271014;33;33356;-81
2023/06/12 11:17:04;;;;;;;1.98;1.70;;;;;;;27.91;29.11;100214.28;5261415;33;33387;-82
2023/06/12 11:20:09;;;;;;;5.10;1.80;;;;;;;27.70;30.25;100225.59;5253392;33;33346;-82
2023/06/12 11:23:12;;;;;;;3.60;1.73;;;;;;;28.62;30.81;100217.94;5270215;33;33081;-82
2023/06/12 11:26:17;;;;;;;2.05;1.55;;;;;;;28.65;27.86;100214.56;5254834;33;33211;-87
2023/06/12 11:29:25;;;;;;;3.70;1.80;;;;;;;30.81;26.59;100217.34;5270884;33;34119;-87
2023/06/12 11:32:28;;;;;;;1.60;1.50;;;;;;;31.62;24.79;100205.94;5247039;33;33412;-83
2023/06/12 11:35:31;;;;;;;2.08;1.60;;;;;;;31.94;23.29;100203.91;5259190;33;33280;-83
2023/06/12 11:38:35;;;;;;;4.72;1.87;;;;;;;32.59;22.92;100199.38;5247977;33;33168;-83
2023/06/12 11:41:40;;;;;;;1.40;1.30;;;;;;;33.66;21.69;100203.94;5272311;33;33211;-83
2023/06/12 11:44:43;;;;;;;4.45;1.42;;;;;;;34.76;20.00;100207.38;5248751;33;33166;-83
2023/06/12 11:47:46;;;;;;;1.10;1.00;;;;;;;34.97;19.60;100212.91;5258583;33;34843;-83
2023/06/12 11:50:53;;;;;;;4.53;1.45;;;;;;;35.10;19.15;100211.00;5259019;33;33964;-83
2023/06/12 11:53:59;;;;;;;2.30;1.27;;;;;;;36.18;19.12;100195.66;5259143;33;33577;-83
2023/06/12 11:57:15;;;;;;;2.17;1.55;;;;;;;36.44;18.53;100200.03;5266284;33;34123;-83
2023/06/12 12:00:20;;;;;;;2.95;1.08;;;;;;;35.68;17.97;100204.50;5286096;33;33464;-83
2023/06/12 12:03:23;;;;;;;2.05;1.40;;;;;;;36.61;18.07;100193.31;5278414;33;33712;-83
2023/06/12 12:06:27;;;;;;;1.20;1.10;;;;;;;37.54;17.11;100192.97;5272069;33;33012;-83
2023/06/12 12:09:30;;;;;;;4.50;1.33;;;;;;;37.29;17.90;100198.75;5286965;33;34908;-83
2023/06/12 12:12:44;;;;;;;4.05;1.40;;;;;;;36.53;17.08;100190.28;5280850;33;33721;-81
2023/06/12 12:15:47;;;;;;;2.47;1.35;;;;;;;37.36;17.13;100189.69;5289016;33;34181;-82
2023/06/12 12:18:51;;;;;;;5.78;1.40;;;;;;;37.52;15.28;100186.88;5262704;33;33462;-82
2023/06/12 12:21:55;;;;;;;1.27;1.12;;;;;;;38.32;15.49;100185.47;5262299;33;33865;-83
2023/06/12 12:24:58;;;;;;;3.12;1.42;;;;;;;38.70;14.30;100179.03;5267754;33;34359;-83
2023/06/12 12:28:04;;;;;;;3.45;1.33;;;;;;;37.89;14.31;100192.97;5271764;33;33541;-83
2023/06/12 12:31:08;;;;;;;1.20;1.10;;;;;;;38.92;14.39;100185.87;5248714;33;33989;-83
2023/06/12 12:34:12;;;;;;;0.88;0.85;;;;;;;39.41;14.80;100181.50;5270678;33;33211;-84
2023/06/12 12:37:14;;;;;;;2.10;1.30;;;;;;;38.91;14.27;100170.19;5246701;33;33873;-82
2023/06/12 12:40:18;;;;;;;2.83;1.48;;;;;;;36.31;17.06;100183.25;5258557;33;34133;-83
2023/06/12 12:43:20;;;;;;;2.08;1.20;;;;;;;36.87;17.06;100173.19;5268755;33;33251;-83
2023/06/12 12:46:25;;;;;;;1.95;1.37;;;;;;;38.38;16.95;100177.53;5271502;33;33104;-83
2023/06/12 12:49:28;;;;;;;2.60;1.23;;;;;;;38.18;16.95;100171.94;5278348;33;33399;-83
2023/06/12 12:52:31;;;;;;;1.55;1.20;;;;;;;39.31;15.08;100171.66;5250499;33;33177;-83
2023/06/12 12:55:40;;;;;;;3.65;1.48;;;;;;;39.87;13.58;100181.38;5236667;33;33431;-83
2023/06/12 12:58:43;;;;;;;2.40;1.17;;;;;;;40.32;12.59;100166.28;5246043;33;33314;-83
2023/06/12 13:01:45;;;;;;;2.12;1.17;;;;;;;39.13;12.19;100176.97;5253087;33;33633;-83
2023/06/12 13:04:48;;;;;;;1.92;1.23;;;;;;;39.52;11.97;100179.66;5229202;33;33538;-83
2023/06/12 13:07:52;;;;;;;1.17;0.98;;;;;;;40.03;11.99;100170.72;5230043;33;34999;-87
2023/06/12 13:10:57;;;;;;;3.80;1.40;;;;;;;39.71;13.54;100170.28;5255137;33;33722;-88
2023/06/12 13:14:00;;;;;;;3.05;1.45;;;;;;;40.18;13.09;100159.63;5242779;33;34145;-88
2023/06/12 13:17:04;;;;;;;3.28;1.55;;;;;;;38.22;15.78;100153.13;5271393;33;35131;-83
2023/06/12 13:20:07;;;;;;;2.22;1.15;;;;;;;40.95;13.82;100161.72;5234710;33;33381;-84
2023/06/12 13:23:10;;;;;;;1.62;1.10;;;;;;;41.22;13.31;100156.72;5251137;33;33121;-84
2023/06/12 13:26:14;;;;;;;3.37;1.20;;;;;;;41.27;13.33;100151.91;5249577;33;33118;-83
2023/06/12 13:29:18;;;;;;;2.53;1.70;;;;;;;40.30;11.77;100145.31;5251698;33;34176;-84
2023/06/12 13:32:22;;;;;;;2.35;1.10;;;;;;;37.96;11.74;100161.41;5239979;33;33416;-84
2023/06/12 13:35:25;;;;;;;1.95;1.00;;;;;;;38.58;12.17;100153.84;5247305;33;33470;-84
2023/06/12 13:38:29;;;;;;;1.40;1.30;;;;;;;39.84;11.62;100160.44;5231125;33;33247;-84
2023/06/12 13:41:32;;;;;;;3.28;1.15;;;;;;;38.66;11.84;100149.19;5255733;33;33653;-84
2023/06/12 13:44:34;;;;;;;1.60;1.50;;;;;;;39.61;11.56;100146.38;5231165;33;33327;-86
2023/06/12 13:47:38;;;;;;;1.52;1.25;;;;;;;40.35;11.80;100148.59;5233287;33;33394;-87
2023/06/12 13:50:40;;;;;;;1.92;1.10;;;;;;;41.05;10.86;100139.66;5244067;33;33766;-85
2023/06/12 13:53:44;;;;;;;7.65;1.33;;;;;;;41.05;11.42;100134.81;5255390;33;33414;-85
2023/06/12 13:56:46;;;;;;;1.00;1.00;;;;;;;40.40;12.35;100138.13;5248053;33;34030;-86
2023/06/12 13:59:49;;;;;;;2.62;1.08;;;;;;;39.14;13.22;100142.03;5256242;33;33093;-86
2023/06/12 14:02:52;;;;;;;6.60;2.08;;;;;;;35.67;16.36;100141.28;5252961;33;34049;-87
2023/06/12 14:05:55;;;;;;;2.10;1.30;;;;;;;34.24;19.04;100148.34;5252688;33;34057;-87
2023/06/12 14:08:58;;;;;;;1.45;1.30;;;;;;;32.54;20.21;100135.44;5267000;33;33583;-86
2023/06/12 14:12:01;;;;;;;1.52;1.42;;;;;;;30.62;21.08;100145.25;5252984;33;34325;-87
2023/06/12 14:15:04;;;;;;;3.08;1.33;;;;;;;30.33;22.25;100140.97;5254556;33;33239;-86
2023/06/12 14:18:08;;;;;;;3.03;1.62;;;;;;;30.05;23.09;100151.38;5248186;33;33392;-86
2023/06/12 14:21:11;;;;;;;5.37;1.40;;;;;;;28.84;23.25;100139.69;5257194;33;34135;-86
2023/06/12 14:24:14;;;;;;;3.97;1.50;;;;;;;29.17;23.63;100148.00;5258027;33;33355;-86
2023/06/12 14:27:38;;;;;;;3.97;1.60;;;;;;;28.54;23.19;100141.91;5260369;33;33005;-86
2023/06/12 14:30:41;;;;;;;1.75;1.40;;;;;;;28.01;25.44;100143.00;5271879;33;33020;-86
2023/06/12 14:33:43;;;;;;;3.70;1.48;;;;;;;27.43;26.11;100142.41;5257869;33;33333;-86
2023/06/12 14:36:51;;;;;;;2.80;1.48;;;;;;;26.51;27.13;100141.44;5246703;33;34284;-86
2023/06/12 14:39:54;;;;;;;2.50;1.55;;;;;;;25.89;27.22;100151.25;5270836;33;34774;-86
2023/06/12 14:42:57;;;;;;;3.20;1.75;;;;;;;25.08;28.39;100156.78;5259818;33;34416;-86
2023/06/12 14:46:00;;;;;;;1.45;1.35;;;;;;;25.02;29.44;100146.88;5230091;33;140032;-86
2023/06/12 14:49:03;;;;;;;3.60;1.75;;;;;;;25.24;28.82;100149.34;5271566;33;33798;-86
2023/06/12 14:52:07;;;;;;;2.22;1.50;;;;;;;24.98;28.76;100148.56;5248944;33;34358;-85
2023/06/12 14:55:30;;;;;;;2.12;1.50;;;;;;;24.97;27.25;100149.63;5255624;33;34458;-85
2023/06/12 14:58:33;;;;;;;2.65;1.30;;;;;;;24.54;29.04;100146.41;5241632;33;33392;-86
2023/06/12 15:01:35;;;;;;;1.58;1.35;;;;;;;24.66;29.61;100143.38;5241784;33;33438;-86
2023/06/12 15:04:39;;;;;;;2.20;1.60;;;;;;;24.51;30.04;100146.13;5241731;33;33882;-86
2023/06/12 15:07:42;;;;;;;2.58;1.90;;;;;;;24.21;30.11;100145.00;5241582;33;32873;-86
2023/06/12 15:10:45;;;;;;;2.15;1.70;;;;;;;24.32;30.50;100135.66;5230353;33;33439;-86
2023/06/12 15:13:48;;;;;;;2.00;1.80;;;;;;;24.02;28.73;100152.97;5229082;33;34316;-86
2023/06/12 15:16:50;;;;;;;1.90;1.65;;;;;;;24.01;29.12;100147.72;5229242;34;32948;-85
2023/06/12 15:19:55;;;;;;;4.93;1.65;;;;;;;23.92;28.93;100152.94;5237072;34;33732;-85
2023/06/12 15:22:58;;;;;;;1.60;1.50;;;;;;;23.79;30.07;100151.53;5221280;33;33444;-85
2023/06/12 15:26:01;;;;;;;2.10;1.50;;;;;;;23.40;30.28;100143.69;5233294;34;34347;-85
2023/06/12 15:29:03;;;;;;;2.78;1.77;;;;;;;23.37;31.64;100143.38;5226047;34;34203;-85
2023/06/12 15:32:07;;;;;;;7.45;2.55;;;;;;;23.24;32.10;100142.78;5238852;33;33501;-85
2023/06/12 15:35:10;;;;;;;1.70;1.60;;;;;;;23.09;32.38;100142.72;5234523;33;33466;-85
2023/06/12 15:38:43;;;;;;;2.60;1.37;;;;;;;23.07;32.79;100147.62;5264878;33;33736;-85
2023/06/12 15:41:46;;;;;;;1.60;1.50;;;;;;;23.24;32.92;100145.53;5261944;33;34896;-85
2023/06/12 15:44:49;;;;;;;3.03;1.80;;;;;;;23.08;31.49;100149.31;5255434;33;34540;-85
2023/06/12 15:47:51;;;;;;;2.25;1.85;;;;;;;23.00;32.15;100150.62;5243155;33;33393;-85
2023/06/12 15:50:55;;;;;;;1.60;1.50;;;;;;;23.03;32.44;100150.09;5234217;33;33256;-84
2023/06/12 15:53:58;;;;;;;2.12;1.90;;;;;;;22.85;31.70;100143.09;5260787;33;33641;-85
2023/06/12 15:57:02;;;;;;;2.22;1.87;;;;;;;22.64;31.97;100152.28;5260964;33;33144;-85
2023/06/12 16:00:05;;;;;;;2.03;1.62;;;;;;;22.63;32.84;100145.13;5250675;33;33314;-85
2023/06/12 16:03:08;;;;;;;2.28;1.73;;;;;;;22.72;32.71;100153.69;5261272;33;32909;-85
2023/06/12 16:06:12;;;;;;;4.68;2.00;;;;;;;22.78;34.27;100147.16;5273766;33;32975;-85
2023/06/12 16:09:15;;;;;;;4.20;2.05;;;;;;;22.53;32.67;100150.56;5259629;33;33352;-84
2023/06/12 16:12:18;;;;;;;3.60;2.08;;;;;;;22.48;33.32;100142.28;5247261;33;33641;-85
2023/06/12 16:15:21;;;;;;;3.00;1.70;;;;;;;22.48;34.30;100143.09;5260877;33;33478;-86
2023/06/12 16:18:24;;;;;;;2.35;2.12;;;;;;;22.33;35.29;100149.28;5272590;33;34254;-85
